DAL2610 KGRR-KMSP
Flight info
| Callsign | DAL2610 |
|---|---|
| Flight time | 1h 4m |
| Altitude | 38000 |
| Route | YULNU IDIOM MUSCL4 |
| Aircraft | A320/M-SDE3FGHIRWY/LB1 |
Departure
| Time | 2026-05-04 23:03 |
|---|---|
| Airport | Gerald R. Ford International Airport (KGRR) |
Arrival
| Time | 2026-05-05 00:08 |
|---|---|
| Airport | Minneapolis–Saint Paul International Airport / Wold–Chamberlain Field (KMSP) |
| Time | Latitude | Longitude | Altitude | Speed | Heading |
|---|---|---|---|---|---|
| 2026-05-04 22:50 | 42.88118 | -85.52926 | 802 ft | 0 kts | 35° |
| 2026-05-04 22:58 | 42.88117 | -85.52926 | 801 ft | 1 kts | 35° |
| 2026-05-04 22:58 | 42.88098 | -85.52946 | 802 ft | 4 kts | 39° |
| 2026-05-04 22:58 | 42.88078 | -85.52971 | 802 ft | 4 kts | 58° |
| 2026-05-04 22:58 | 42.88072 | -85.53000 | 802 ft | 3 kts | 117° |
| 2026-05-04 22:59 | 42.88074 | -85.53005 | 802 ft | 0 kts | 124° |
| 2026-05-04 23:00 | 42.88068 | -85.52997 | 802 ft | 6 kts | 134° |
| 2026-05-04 23:00 | 42.87998 | -85.52909 | 802 ft | 23 kts | 98° |
| 2026-05-04 23:01 | 42.88025 | -85.52616 | 802 ft | 40 kts | 82° |
| 2026-05-04 23:01 | 42.88064 | -85.52227 | 798 ft | 43 kts | 81° |
| 2026-05-04 23:01 | 42.88110 | -85.51815 | 797 ft | 45 kts | 81° |
| 2026-05-04 23:01 | 42.88164 | -85.51396 | 799 ft | 46 kts | 79° |
| 2026-05-04 23:02 | 42.88207 | -85.50961 | 799 ft | 47 kts | 81° |
| 2026-05-04 23:02 | 42.88242 | -85.50608 | 800 ft | 15 kts | 107° |
| 2026-05-04 23:02 | 42.88157 | -85.50571 | 803 ft | 13 kts | 175° |
| 2026-05-04 23:02 | 42.88061 | -85.50656 | 803 ft | 26 kts | 257° |
| 2026-05-04 23:03 | 42.88001 | -85.51210 | 802 ft | 96 kts | 261° |
| 2026-05-04 23:03 | 42.87872 | -85.52402 | 853 ft | 150 kts | 260° |
| 2026-05-04 23:03 | 42.87738 | -85.53785 | 1738 ft | 144 kts | 258° |
| 2026-05-04 23:03 | 42.87611 | -85.55161 | 2571 ft | 150 kts | 263° |
| 2026-05-04 23:04 | 42.87981 | -85.56668 | 2984 ft | 195 kts | 302° |
| 2026-05-04 23:04 | 42.89090 | -85.58025 | 3449 ft | 231 kts | 316° |
| 2026-05-04 23:04 | 42.90458 | -85.59376 | 4031 ft | 253 kts | 317° |
| 2026-05-04 23:04 | 42.91909 | -85.60798 | 4957 ft | 258 kts | 317° |
| 2026-05-04 23:05 | 42.93368 | -85.62236 | 6002 ft | 261 kts | 320° |
| 2026-05-04 23:05 | 42.94848 | -85.63706 | 7330 ft | 265 kts | 319° |
| 2026-05-04 23:05 | 42.96337 | -85.65220 | 8720 ft | 268 kts | 317° |
| 2026-05-04 23:05 | 42.97824 | -85.66779 | 10086 ft | 270 kts | 317° |
| 2026-05-04 23:06 | 42.99323 | -85.68361 | 11399 ft | 272 kts | 317° |
| 2026-05-04 23:06 | 43.00839 | -85.69959 | 12589 ft | 279 kts | 316° |
| 2026-05-04 23:06 | 43.02405 | -85.71655 | 13461 ft | 297 kts | 315° |
| 2026-05-04 23:06 | 43.04073 | -85.73499 | 14010 ft | 320 kts | 315° |
| 2026-05-04 23:07 | 43.05838 | -85.75445 | 14623 ft | 338 kts | 315° |
| 2026-05-04 23:07 | 43.07728 | -85.77524 | 15141 ft | 359 kts | 316° |
| 2026-05-04 23:07 | 43.09756 | -85.79675 | 15546 ft | 380 kts | 317° |
| 2026-05-04 23:07 | 43.11903 | -85.81927 | 15834 ft | 398 kts | 317° |
| 2026-05-04 23:08 | 43.14086 | -85.84249 | 16857 ft | 390 kts | 316° |
| 2026-05-04 23:08 | 43.16222 | -85.86496 | 18065 ft | 386 kts | 317° |
| 2026-05-04 23:08 | 43.18361 | -85.88732 | 18786 ft | 388 kts | 316° |
| 2026-05-04 23:08 | 43.20488 | -85.91010 | 19538 ft | 387 kts | 315° |
| 2026-05-04 23:09 | 43.22561 | -85.93351 | 20308 ft | 386 kts | 314° |
| 2026-05-04 23:09 | 43.24639 | -85.95672 | 21090 ft | 385 kts | 315° |
| 2026-05-04 23:09 | 43.26741 | -85.97945 | 21856 ft | 385 kts | 316° |
| 2026-05-04 23:09 | 43.28904 | -86.00200 | 22048 ft | 398 kts | 316° |
| 2026-05-04 23:10 | 43.31143 | -86.02496 | 22247 ft | 405 kts | 317° |
| 2026-05-04 23:10 | 43.33412 | -86.04834 | 22659 ft | 408 kts | 316° |
| 2026-05-04 23:10 | 43.35674 | -86.07195 | 23144 ft | 409 kts | 316° |
| 2026-05-04 23:10 | 43.37930 | -86.09590 | 23539 ft | 411 kts | 315° |
| 2026-05-04 23:11 | 43.40159 | -86.11985 | 23912 ft | 413 kts | 315° |
| 2026-05-04 23:11 | 43.42420 | -86.14434 | 24274 ft | 414 kts | 315° |
| 2026-05-04 23:11 | 43.44685 | -86.16896 | 24632 ft | 416 kts | 315° |
| 2026-05-04 23:11 | 43.46964 | -86.19374 | 24982 ft | 418 kts | 315° |
| 2026-05-04 23:12 | 43.49252 | -86.21857 | 25329 ft | 420 kts | 315° |
| 2026-05-04 23:12 | 43.51548 | -86.24347 | 25660 ft | 421 kts | 315° |
| 2026-05-04 23:12 | 43.53855 | -86.26848 | 25986 ft | 423 kts | 315° |
| 2026-05-04 23:12 | 43.56175 | -86.29365 | 26288 ft | 425 kts | 315° |
| 2026-05-04 23:13 | 43.58505 | -86.31893 | 26623 ft | 426 kts | 315° |
| 2026-05-04 23:13 | 43.60835 | -86.34424 | 26910 ft | 428 kts | 315° |
| 2026-05-04 23:13 | 43.63175 | -86.36968 | 27172 ft | 429 kts | 315° |
| 2026-05-04 23:13 | 43.65519 | -86.39522 | 27413 ft | 430 kts | 315° |
| 2026-05-04 23:14 | 43.67872 | -86.42090 | 27628 ft | 432 kts | 315° |
| 2026-05-04 23:14 | 43.70229 | -86.44663 | 27851 ft | 432 kts | 315° |
| 2026-05-04 23:14 | 43.72587 | -86.47235 | 28158 ft | 431 kts | 315° |
| 2026-05-04 23:14 | 43.74936 | -86.49800 | 28477 ft | 430 kts | 315° |
| 2026-05-04 23:15 | 43.77279 | -86.52361 | 28788 ft | 429 kts | 315° |
| 2026-05-04 23:15 | 43.79587 | -86.54891 | 29143 ft | 427 kts | 315° |
| 2026-05-04 23:15 | 43.81911 | -86.57440 | 29489 ft | 426 kts | 315° |
| 2026-05-04 23:15 | 43.84231 | -86.59988 | 29785 ft | 425 kts | 314° |
| 2026-05-04 23:16 | 43.86542 | -86.62531 | 30061 ft | 423 kts | 314° |
| 2026-05-04 23:16 | 43.88845 | -86.65070 | 30342 ft | 422 kts | 314° |
| 2026-05-04 23:16 | 43.91148 | -86.67611 | 30624 ft | 421 kts | 314° |
| 2026-05-04 23:16 | 43.93437 | -86.70138 | 30906 ft | 420 kts | 314° |
| 2026-05-04 23:17 | 43.95719 | -86.72660 | 31193 ft | 419 kts | 314° |
| 2026-05-04 23:17 | 43.97969 | -86.75145 | 31479 ft | 418 kts | 314° |
| 2026-05-04 23:17 | 44.00237 | -86.77651 | 31863 ft | 415 kts | 314° |
| 2026-05-04 23:17 | 44.02483 | -86.80138 | 32220 ft | 412 kts | 314° |
| 2026-05-04 23:18 | 44.04718 | -86.82617 | 32532 ft | 410 kts | 313° |
| 2026-05-04 23:18 | 44.06738 | -86.85328 | 32821 ft | 400 kts | 304° |
| 2026-05-04 23:18 | 44.08364 | -86.88415 | 33108 ft | 391 kts | 295° |
| 2026-05-04 23:18 | 44.09573 | -86.91768 | 33399 ft | 385 kts | 288° |
| 2026-05-04 23:19 | 44.10606 | -86.95203 | 33674 ft | 384 kts | 288° |
| 2026-05-04 23:19 | 44.11643 | -86.98624 | 33935 ft | 383 kts | 289° |
| 2026-05-04 23:19 | 44.12678 | -87.02038 | 34172 ft | 383 kts | 289° |
| 2026-05-04 23:19 | 44.13715 | -87.05460 | 34407 ft | 384 kts | 289° |
| 2026-05-04 23:20 | 44.14751 | -87.08880 | 34606 ft | 384 kts | 289° |
| 2026-05-04 23:20 | 44.15793 | -87.12317 | 34796 ft | 385 kts | 289° |
| 2026-05-04 23:20 | 44.16831 | -87.15745 | 34997 ft | 385 kts | 289° |
| 2026-05-04 23:20 | 44.17874 | -87.19186 | 35197 ft | 385 kts | 289° |
| 2026-05-04 23:21 | 44.18914 | -87.22628 | 35397 ft | 386 kts | 289° |
| 2026-05-04 23:21 | 44.19950 | -87.26074 | 35623 ft | 386 kts | 289° |
| 2026-05-04 23:21 | 44.20975 | -87.29483 | 35825 ft | 386 kts | 289° |
| 2026-05-04 23:21 | 44.22009 | -87.32930 | 36017 ft | 386 kts | 289° |
| 2026-05-04 23:22 | 44.23044 | -87.36386 | 36194 ft | 386 kts | 289° |
| 2026-05-04 23:22 | 44.24078 | -87.39845 | 36359 ft | 387 kts | 289° |
| 2026-05-04 23:22 | 44.25108 | -87.43305 | 36531 ft | 387 kts | 289° |
| 2026-05-04 23:22 | 44.26139 | -87.46776 | 36699 ft | 387 kts | 289° |
| 2026-05-04 23:23 | 44.27172 | -87.50254 | 36877 ft | 388 kts | 289° |
| 2026-05-04 23:23 | 44.28205 | -87.53732 | 37026 ft | 388 kts | 289° |
| 2026-05-04 23:23 | 44.29242 | -87.57213 | 37176 ft | 389 kts | 289° |
| 2026-05-04 23:23 | 44.30281 | -87.60698 | 37324 ft | 389 kts | 289° |
| 2026-05-04 23:24 | 44.31317 | -87.64182 | 37463 ft | 390 kts | 289° |
| 2026-05-04 23:24 | 44.32352 | -87.67689 | 37480 ft | 390 kts | 289° |
| 2026-05-04 23:24 | 44.34419 | -87.74710 | 37475 ft | 391 kts | 289° |
| 2026-05-04 23:25 | 44.36474 | -87.81691 | 37475 ft | 391 kts | 289° |
| 2026-05-04 23:25 | 44.38540 | -87.88732 | 37476 ft | 391 kts | 289° |
| 2026-05-04 23:26 | 44.40599 | -87.95786 | 37533 ft | 392 kts | 289° |
| 2026-05-04 23:26 | 44.42659 | -88.02846 | 37520 ft | 392 kts | 289° |
| 2026-05-04 23:27 | 44.44720 | -88.09922 | 37506 ft | 393 kts | 289° |
| 2026-05-04 23:27 | 44.46775 | -88.17007 | 37516 ft | 393 kts | 289° |
| 2026-05-04 23:28 | 44.48819 | -88.24063 | 37514 ft | 393 kts | 289° |
| 2026-05-04 23:28 | 44.50841 | -88.31178 | 37513 ft | 392 kts | 287° |
| 2026-05-04 23:29 | 44.52549 | -88.38428 | 37515 ft | 392 kts | 284° |
| 2026-05-04 23:29 | 44.54104 | -88.45742 | 37541 ft | 391 kts | 284° |
| 2026-05-04 23:30 | 44.55683 | -88.53042 | 37558 ft | 391 kts | 284° |
| 2026-05-04 23:30 | 44.57297 | -88.60319 | 37562 ft | 391 kts | 284° |
| 2026-05-04 23:31 | 44.58921 | -88.67596 | 37565 ft | 391 kts | 284° |
| 2026-05-04 23:31 | 44.60537 | -88.74881 | 37563 ft | 391 kts | 284° |
| 2026-05-04 23:32 | 44.62142 | -88.82157 | 37560 ft | 389 kts | 284° |
| 2026-05-04 23:32 | 44.63725 | -88.89370 | 37549 ft | 389 kts | 284° |
| 2026-05-04 23:33 | 44.65314 | -88.96635 | 37546 ft | 389 kts | 284° |
| 2026-05-04 23:33 | 44.66909 | -89.03914 | 37548 ft | 390 kts | 284° |
| 2026-05-04 23:34 | 44.68500 | -89.11193 | 37553 ft | 390 kts | 284° |
| 2026-05-04 23:34 | 44.70074 | -89.18476 | 37557 ft | 390 kts | 284° |
| 2026-05-04 23:35 | 44.71645 | -89.25769 | 37583 ft | 390 kts | 284° |
| 2026-05-04 23:35 | 44.73214 | -89.33062 | 37580 ft | 390 kts | 284° |
| 2026-05-04 23:36 | 44.74770 | -89.40320 | 37580 ft | 390 kts | 284° |
| 2026-05-04 23:36 | 44.76331 | -89.47621 | 37575 ft | 390 kts | 284° |
| 2026-05-04 23:37 | 44.77887 | -89.54921 | 37579 ft | 390 kts | 284° |
| 2026-05-04 23:37 | 44.79179 | -89.60999 | 37576 ft | 390 kts | 284° |
| 2026-05-04 23:38 | 44.80728 | -89.68306 | 37578 ft | 390 kts | 284° |
| 2026-05-04 23:38 | 44.82274 | -89.75623 | 37579 ft | 389 kts | 284° |
| 2026-05-04 23:39 | 44.83809 | -89.82941 | 37580 ft | 390 kts | 284° |
| 2026-05-04 23:39 | 44.85338 | -89.90264 | 37581 ft | 390 kts | 283° |
| 2026-05-04 23:40 | 44.86850 | -89.97543 | 37583 ft | 390 kts | 283° |
| 2026-05-04 23:40 | 44.88382 | -90.04918 | 37575 ft | 395 kts | 284° |
| 2026-05-04 23:41 | 44.89409 | -90.12543 | 37575 ft | 397 kts | 276° |
| 2026-05-04 23:41 | 44.90092 | -90.20305 | 37582 ft | 400 kts | 276° |
| 2026-05-04 23:42 | 44.90781 | -90.28104 | 37582 ft | 401 kts | 276° |
| 2026-05-04 23:42 | 44.91462 | -90.35874 | 37592 ft | 401 kts | 276° |
| 2026-05-04 23:43 | 44.92136 | -90.43695 | 37599 ft | 401 kts | 276° |
| 2026-05-04 23:43 | 44.92807 | -90.51493 | 37461 ft | 395 kts | 276° |
| 2026-05-04 23:44 | 44.93130 | -90.55294 | 37190 ft | 387 kts | 275° |
| 2026-05-04 23:44 | 44.93447 | -90.59047 | 36916 ft | 384 kts | 275° |
| 2026-05-04 23:44 | 44.93757 | -90.62779 | 36651 ft | 381 kts | 275° |
| 2026-05-04 23:44 | 44.94064 | -90.66486 | 36388 ft | 380 kts | 275° |
| 2026-05-04 23:45 | 44.94373 | -90.70214 | 36130 ft | 384 kts | 275° |
| 2026-05-04 23:45 | 44.94684 | -90.73957 | 35873 ft | 385 kts | 275° |
| 2026-05-04 23:45 | 44.94997 | -90.77710 | 35632 ft | 384 kts | 275° |
| 2026-05-04 23:45 | 44.95307 | -90.81439 | 35381 ft | 382 kts | 275° |
| 2026-05-04 23:46 | 44.95617 | -90.85157 | 35034 ft | 381 kts | 275° |
| 2026-05-04 23:46 | 44.95923 | -90.88825 | 34202 ft | 379 kts | 275° |
| 2026-05-04 23:46 | 44.96227 | -90.92487 | 33436 ft | 371 kts | 275° |
| 2026-05-04 23:46 | 44.96520 | -90.96056 | 31926 ft | 365 kts | 275° |
| 2026-05-04 23:47 | 44.96807 | -90.99600 | 30850 ft | 363 kts | 274° |
| 2026-05-04 23:47 | 44.97095 | -91.03147 | 29895 ft | 365 kts | 274° |
| 2026-05-04 23:47 | 44.97384 | -91.06706 | 28828 ft | 366 kts | 274° |
| 2026-05-04 23:47 | 44.97672 | -91.10276 | 27752 ft | 363 kts | 274° |
| 2026-05-04 23:48 | 44.97955 | -91.13767 | 26741 ft | 356 kts | 274° |
| 2026-05-04 23:48 | 44.98235 | -91.17264 | 25764 ft | 360 kts | 274° |
| 2026-05-04 23:48 | 44.98514 | -91.20800 | 24818 ft | 364 kts | 274° |
| 2026-05-04 23:48 | 44.98796 | -91.24397 | 23898 ft | 369 kts | 274° |
| 2026-05-04 23:49 | 44.99070 | -91.27864 | 23468 ft | 345 kts | 274° |
| 2026-05-04 23:49 | 44.99337 | -91.31140 | 22987 ft | 320 kts | 274° |
| 2026-05-04 23:49 | 44.99581 | -91.34172 | 22111 ft | 309 kts | 273° |
| 2026-05-04 23:49 | 44.99817 | -91.37163 | 21498 ft | 302 kts | 273° |
| 2026-05-04 23:50 | 45.00043 | -91.40096 | 21593 ft | 302 kts | 273° |
| 2026-05-04 23:50 | 45.00272 | -91.43138 | 21630 ft | 322 kts | 273° |
| 2026-05-04 23:50 | 45.00513 | -91.46366 | 21627 ft | 339 kts | 273° |
| 2026-05-04 23:50 | 45.00768 | -91.49802 | 21016 ft | 363 kts | 274° |
| 2026-05-04 23:51 | 45.01039 | -91.53382 | 20441 ft | 369 kts | 274° |
| 2026-05-04 23:51 | 45.01315 | -91.56996 | 19890 ft | 371 kts | 274° |
| 2026-05-04 23:51 | 45.01592 | -91.60574 | 19330 ft | 371 kts | 274° |
| 2026-05-04 23:51 | 45.01873 | -91.64186 | 18991 ft | 369 kts | 274° |
| 2026-05-04 23:52 | 45.02150 | -91.67781 | 18476 ft | 366 kts | 274° |
| 2026-05-04 23:52 | 45.02420 | -91.71346 | 17924 ft | 363 kts | 274° |
| 2026-05-04 23:52 | 45.02681 | -91.74881 | 17326 ft | 361 kts | 274° |
| 2026-05-04 23:52 | 45.02938 | -91.78406 | 16780 ft | 360 kts | 274° |
| 2026-05-04 23:53 | 45.03193 | -91.81924 | 16444 ft | 360 kts | 274° |
| 2026-05-04 23:53 | 45.03451 | -91.85448 | 16076 ft | 360 kts | 274° |
| 2026-05-04 23:53 | 45.03711 | -91.88960 | 15698 ft | 359 kts | 274° |
| 2026-05-04 23:53 | 45.03971 | -91.92474 | 15337 ft | 359 kts | 275° |
| 2026-05-04 23:54 | 45.04227 | -91.95987 | 14951 ft | 359 kts | 275° |
| 2026-05-04 23:54 | 45.04483 | -91.99493 | 14587 ft | 359 kts | 275° |
| 2026-05-04 23:54 | 45.04740 | -92.03006 | 14212 ft | 359 kts | 275° |
| 2026-05-04 23:54 | 45.04993 | -92.06516 | 13840 ft | 359 kts | 275° |
| 2026-05-04 23:55 | 45.05240 | -92.10027 | 13463 ft | 359 kts | 275° |
| 2026-05-04 23:55 | 45.05484 | -92.13490 | 13069 ft | 358 kts | 275° |
| 2026-05-04 23:55 | 45.05950 | -92.20492 | 12336 ft | 356 kts | 271° |
| 2026-05-04 23:56 | 45.05667 | -92.23958 | 11973 ft | 357 kts | 260° |
| 2026-05-04 23:56 | 45.05133 | -92.27382 | 11596 ft | 356 kts | 259° |
| 2026-05-04 23:56 | 45.04595 | -92.30796 | 11224 ft | 356 kts | 260° |
| 2026-05-04 23:56 | 45.04059 | -92.34201 | 10870 ft | 349 kts | 260° |
| 2026-05-04 23:57 | 45.03545 | -92.37445 | 10735 ft | 328 kts | 260° |
| 2026-05-04 23:57 | 45.03060 | -92.40490 | 10599 ft | 305 kts | 260° |
| 2026-05-04 23:57 | 45.02616 | -92.43272 | 10445 ft | 275 kts | 261° |
| 2026-05-04 23:57 | 45.02213 | -92.45793 | 10168 ft | 255 kts | 261° |
| 2026-05-04 23:58 | 45.01834 | -92.48186 | 9769 ft | 246 kts | 261° |
| 2026-05-04 23:58 | 45.01460 | -92.50559 | 9651 ft | 247 kts | 261° |
| 2026-05-04 23:58 | 45.01087 | -92.52934 | 9470 ft | 248 kts | 261° |
| 2026-05-04 23:58 | 45.00703 | -92.55310 | 9205 ft | 248 kts | 258° |
| 2026-05-04 23:59 | 44.99995 | -92.57557 | 8927 ft | 255 kts | 243° |
| 2026-05-04 23:59 | 44.98845 | -92.59468 | 8621 ft | 262 kts | 231° |
| 2026-05-04 23:59 | 44.97531 | -92.61262 | 8329 ft | 263 kts | 231° |
| 2026-05-04 23:59 | 44.96215 | -92.63056 | 8019 ft | 263 kts | 231° |
| 2026-05-05 00:00 | 44.94898 | -92.64853 | 7741 ft | 263 kts | 231° |
| 2026-05-05 00:00 | 44.94455 | -92.65458 | 7643 ft | 263 kts | 231° |
| 2026-05-05 00:00 | 44.92261 | -92.68451 | 7157 ft | 261 kts | 230° |
| 2026-05-05 00:00 | 44.90980 | -92.70188 | 7070 ft | 256 kts | 231° |
| 2026-05-05 00:01 | 44.89594 | -92.72110 | 7014 ft | 303 kts | 230° |
| 2026-05-05 00:01 | 44.88001 | -92.74336 | 6952 ft | 340 kts | 230° |
| 2026-05-05 00:01 | 44.86440 | -92.76932 | 6953 ft | 344 kts | 244° |
| 2026-05-05 00:01 | 44.85470 | -92.79899 | 6509 ft | 326 kts | 251° |
| 2026-05-05 00:02 | 44.84621 | -92.82794 | 6158 ft | 313 kts | 252° |
| 2026-05-05 00:02 | 44.83810 | -92.85577 | 5793 ft | 302 kts | 252° |
| 2026-05-05 00:02 | 44.83027 | -92.88262 | 5440 ft | 291 kts | 252° |
| 2026-05-05 00:02 | 44.82266 | -92.90858 | 5109 ft | 282 kts | 252° |
| 2026-05-05 00:03 | 44.81526 | -92.93370 | 4792 ft | 273 kts | 252° |
| 2026-05-05 00:03 | 44.80808 | -92.95808 | 4481 ft | 265 kts | 252° |
| 2026-05-05 00:03 | 44.80123 | -92.98176 | 4173 ft | 256 kts | 256° |
| 2026-05-05 00:03 | 44.80024 | -93.00486 | 3890 ft | 225 kts | 290° |
| 2026-05-05 00:04 | 44.80704 | -93.02357 | 3584 ft | 207 kts | 302° |
| 2026-05-05 00:04 | 44.81415 | -93.04003 | 3316 ft | 191 kts | 303° |
| 2026-05-05 00:04 | 44.82072 | -93.05504 | 3097 ft | 168 kts | 303° |
| 2026-05-05 00:04 | 44.82642 | -93.06797 | 2936 ft | 146 kts | 303° |
| 2026-05-05 00:05 | 44.83142 | -93.07936 | 2781 ft | 130 kts | 303° |
| 2026-05-05 00:05 | 44.83604 | -93.08992 | 2594 ft | 124 kts | 303° |
| 2026-05-05 00:05 | 44.84049 | -93.10012 | 2443 ft | 121 kts | 304° |
| 2026-05-05 00:05 | 44.84490 | -93.11025 | 2277 ft | 121 kts | 304° |
| 2026-05-05 00:06 | 44.84930 | -93.12034 | 2112 ft | 121 kts | 304° |
| 2026-05-05 00:06 | 44.85367 | -93.13040 | 1938 ft | 119 kts | 304° |
| 2026-05-05 00:06 | 44.85803 | -93.14052 | 1750 ft | 124 kts | 304° |
| 2026-05-05 00:06 | 44.86238 | -93.15050 | 1556 ft | 119 kts | 303° |
| 2026-05-05 00:07 | 44.86674 | -93.16048 | 1443 ft | 119 kts | 304° |
| 2026-05-05 00:07 | 44.87106 | -93.17043 | 1268 ft | 119 kts | 303° |
| 2026-05-05 00:07 | 44.87540 | -93.18051 | 1109 ft | 121 kts | 304° |
| 2026-05-05 00:07 | 44.87980 | -93.19060 | 933 ft | 119 kts | 304° |
| 2026-05-05 00:08 | 44.88395 | -93.20013 | 825 ft | 100 kts | 301° |
| 2026-05-05 00:08 | 44.88612 | -93.20522 | 823 ft | 34 kts | 301° |
| 2026-05-05 00:08 | 44.88715 | -93.20783 | 824 ft | 25 kts | 280° |
| 2026-05-05 00:08 | 44.88615 | -93.20882 | 825 ft | 16 kts | 165° |
| 2026-05-05 00:09 | 44.88539 | -93.20782 | 825 ft | 14 kts | 126° |
| 2026-05-05 00:09 | 44.88461 | -93.20630 | 825 ft | 33 kts | 128° |
| 2026-05-05 00:09 | 44.88367 | -93.20401 | 825 ft | 17 kts | 113° |
| 2026-05-05 00:09 | 44.88326 | -93.20276 | 825 ft | 6 kts | 122° |
| 2026-05-05 00:10 | 44.88295 | -93.20271 | 825 ft | 5 kts | 210° |
| 2026-05-05 00:10 | 44.88292 | -93.20277 | 825 ft | 0 kts | 225° |
| 2026-05-05 00:10 | 44.88285 | -93.20307 | 825 ft | 8 kts | 242° |
| 2026-05-05 00:10 | 44.88260 | -93.20343 | 825 ft | 0 kts | 225° |